sensor_id;sensor_type;location;lat;lon;timestamp;pressure;altitude;pressure_sealevel;temperature;humidity
69971;BME280;57301;50.328;8.542;2024-03-29T00:00:42;96659.22;;;9.09;57.39
69971;BME280;57301;50.328;8.542;2024-03-29T00:03:09;96657.09;;;9.26;56.96
69971;BME280;57301;50.328;8.542;2024-03-29T00:05:34;96641.09;;;9.41;56.54
69971;BME280;57301;50.328;8.542;2024-03-29T00:08:00;96634.06;;;9.33;56.43
69971;BME280;57301;50.328;8.542;2024-03-29T00:10:26;96624.41;;;9.32;56.11
69971;BME280;57301;50.328;8.542;2024-03-29T00:12:52;96624.38;;;9.26;56.73
69971;BME280;57301;50.328;8.542;2024-03-29T00:15:17;96618.78;;;9.21;57.09
69971;BME280;57301;50.328;8.542;2024-03-29T00:17:43;96607.84;;;8.66;59.51
69971;BME280;57301;50.328;8.542;2024-03-29T00:20:09;96614.31;;;8.27;60.42
69971;BME280;57301;50.328;8.542;2024-03-29T00:22:35;96608.22;;;8.12;60.38
69971;BME280;57301;50.328;8.542;2024-03-29T00:25:00;96594.38;;;8.02;61.28
69971;BME280;57301;50.328;8.542;2024-03-29T00:27:26;96596.88;;;7.74;62.59
69971;BME280;57301;50.328;8.542;2024-03-29T00:29:54;96593.75;;;7.85;62.26
69971;BME280;57301;50.328;8.542;2024-03-29T00:32:20;96603.91;;;7.81;62.41
69971;BME280;57301;50.328;8.542;2024-03-29T00:34:49;96598.81;;;7.80;62.57
69971;BME280;57301;50.328;8.542;2024-03-29T00:37:15;96593.94;;;7.69;63.32
69971;BME280;57301;50.328;8.542;2024-03-29T00:39:41;96589.44;;;7.54;63.24
69971;BME280;57301;50.328;8.542;2024-03-29T00:42:07;96586.53;;;7.64;62.59
69971;BME280;57301;50.328;8.542;2024-03-29T00:44:34;96582.41;;;7.76;62.09
69971;BME280;57301;50.328;8.542;2024-03-29T00:47:04;96581.41;;;7.63;62.79
69971;BME280;57301;50.328;8.542;2024-03-29T00:49:29;96581.47;;;7.40;64.13
69971;BME280;57301;50.328;8.542;2024-03-29T00:51:55;96572.91;;;7.00;66.64
69971;BME280;57301;50.328;8.542;2024-03-29T00:54:21;96589.44;;;7.40;64.98
69971;BME280;57301;50.328;8.542;2024-03-29T00:56:49;96581.66;;;7.53;63.91
69971;BME280;57301;50.328;8.542;2024-03-29T00:59:14;96588.34;;;7.49;63.85
69971;BME280;57301;50.328;8.542;2024-03-29T01:01:40;96588.78;;;7.38;64.08
69971;BME280;57301;50.328;8.542;2024-03-29T01:04:05;96590.63;;;7.52;64.79
69971;BME280;57301;50.328;8.542;2024-03-29T01:06:31;96599.34;;;6.85;66.99
69971;BME280;57301;50.328;8.542;2024-03-29T01:08:57;96599.44;;;7.15;65.83
69971;BME280;57301;50.328;8.542;2024-03-29T01:11:22;96603.81;;;7.08;66.91
69971;BME280;57301;50.328;8.542;2024-03-29T01:13:48;96609.84;;;7.16;66.07
69971;BME280;57301;50.328;8.542;2024-03-29T01:16:13;96599.47;;;7.30;65.81
69971;BME280;57301;50.328;8.542;2024-03-29T01:18:39;96594.38;;;7.72;64.34
69971;BME280;57301;50.328;8.542;2024-03-29T01:21:04;96604.00;;;8.18;62.83
69971;BME280;57301;50.328;8.542;2024-03-29T01:23:30;96589.34;;;8.37;62.90
69971;BME280;57301;50.328;8.542;2024-03-29T01:25:55;96578.59;;;8.45;61.22
69971;BME280;57301;50.328;8.542;2024-03-29T01:28:21;96573.03;;;8.25;61.35
69971;BME280;57301;50.328;8.542;2024-03-29T01:30:53;96579.19;;;8.83;60.35
69971;BME280;57301;50.328;8.542;2024-03-29T01:33:20;96572.38;;;9.23;59.45
69971;BME280;57301;50.328;8.542;2024-03-29T01:35:45;96564.41;;;8.38;62.09
69971;BME280;57301;50.328;8.542;2024-03-29T01:38:11;96564.69;;;9.07;60.89
69971;BME280;57301;50.328;8.542;2024-03-29T01:40:36;96565.03;;;8.97;60.74
69971;BME280;57301;50.328;8.542;2024-03-29T01:43:02;96565.06;;;9.04;60.94
69971;BME280;57301;50.328;8.542;2024-03-29T01:45:29;96568.03;;;9.15;60.67
69971;BME280;57301;50.328;8.542;2024-03-29T01:47:55;96561.84;;;9.08;60.92
69971;BME280;57301;50.328;8.542;2024-03-29T01:50:21;96565.59;;;8.93;61.84
69971;BME280;57301;50.328;8.542;2024-03-29T01:52:47;96561.00;;;9.08;60.92
69971;BME280;57301;50.328;8.542;2024-03-29T01:55:13;96567.22;;;9.15;60.72
69971;BME280;57301;50.328;8.542;2024-03-29T01:57:39;96552.03;;;9.09;61.02
69971;BME280;57301;50.328;8.542;2024-03-29T02:00:06;96530.78;;;8.87;62.15
69971;BME280;57301;50.328;8.542;2024-03-29T02:02:33;96530.56;;;9.10;60.76
69971;BME280;57301;50.328;8.542;2024-03-29T02:04:59;96523.63;;;8.45;63.37
69971;BME280;57301;50.328;8.542;2024-03-29T02:07:25;96514.75;;;9.02;62.16
69971;BME280;57301;50.328;8.542;2024-03-29T02:09:50;96509.00;;;8.99;62.03
69971;BME280;57301;50.328;8.542;2024-03-29T02:12:16;96498.59;;;8.76;61.61
69971;BME280;57301;50.328;8.542;2024-03-29T02:14:42;96507.47;;;9.11;60.90
69971;BME280;57301;50.328;8.542;2024-03-29T02:17:08;96504.03;;;8.46;63.03
69971;BME280;57301;50.328;8.542;2024-03-29T02:19:34;96516.38;;;8.75;62.99
69971;BME280;57301;50.328;8.542;2024-03-29T02:22:03;96511.97;;;9.10;61.03
69971;BME280;57301;50.328;8.542;2024-03-29T02:24:31;96513.47;;;9.26;60.33
69971;BME280;57301;50.328;8.542;2024-03-29T02:26:57;96524.38;;;8.82;60.22
69971;BME280;57301;50.328;8.542;2024-03-29T02:29:23;96536.81;;;8.75;62.20
69971;BME280;57301;50.328;8.542;2024-03-29T02:31:49;96546.16;;;8.49;62.80
69971;BME280;57301;50.328;8.542;2024-03-29T02:34:14;96541.28;;;8.17;60.19
69971;BME280;57301;50.328;8.542;2024-03-29T02:36:40;96538.78;;;8.30;59.66
69971;BME280;57301;50.328;8.542;2024-03-29T02:39:08;96527.94;;;8.46;58.21
69971;BME280;57301;50.328;8.542;2024-03-29T02:41:33;96531.50;;;8.53;57.98
69971;BME280;57301;50.328;8.542;2024-03-29T02:43:59;96543.38;;;8.79;57.28
69971;BME280;57301;50.328;8.542;2024-03-29T02:46:25;96548.38;;;8.88;57.43
69971;BME280;57301;50.328;8.542;2024-03-29T02:48:50;96555.25;;;9.04;57.22
69971;BME280;57301;50.328;8.542;2024-03-29T02:51:16;96545.53;;;8.69;58.24
69971;BME280;57301;50.328;8.542;2024-03-29T02:53:41;96537.00;;;9.23;56.21
69971;BME280;57301;50.328;8.542;2024-03-29T02:56:07;96545.16;;;8.72;57.30
69971;BME280;57301;50.328;8.542;2024-03-29T02:58:34;96542.75;;;8.98;57.33
69971;BME280;57301;50.328;8.542;2024-03-29T03:01:07;96533.75;;;8.99;56.51
69971;BME280;57301;50.328;8.542;2024-03-29T03:03:33;96548.75;;;8.43;57.79
69971;BME280;57301;50.328;8.542;2024-03-29T03:05:58;96558.84;;;8.90;57.59
69971;BME280;57301;50.328;8.542;2024-03-29T03:08:24;96544.56;;;8.76;57.43
69971;BME280;57301;50.328;8.542;2024-03-29T03:11:08;96549.88;;;8.76;57.32
69971;BME280;57301;50.328;8.542;2024-03-29T03:13:34;96549.50;;;8.58;58.03
69971;BME280;57301;50.328;8.542;2024-03-29T03:15:59;96544.31;;;8.71;57.52
69971;BME280;57301;50.328;8.542;2024-03-29T03:18:25;96533.97;;;8.55;57.84
69971;BME280;57301;50.328;8.542;2024-03-29T03:20:52;96528.50;;;8.63;58.09
69971;BME280;57301;50.328;8.542;2024-03-29T03:23:17;96535.31;;;8.66;57.85
69971;BME280;57301;50.328;8.542;2024-03-29T03:25:43;96524.19;;;8.83;56.65
69971;BME280;57301;50.328;8.542;2024-03-29T03:28:08;96515.19;;;9.06;57.13
69971;BME280;57301;50.328;8.542;2024-03-29T03:30:39;96525.44;;;9.09;56.01
69971;BME280;57301;50.328;8.542;2024-03-29T03:33:05;96534.41;;;9.08;56.80
69971;BME280;57301;50.328;8.542;2024-03-29T03:35:31;96536.34;;;8.71;58.26
69971;BME280;57301;50.328;8.542;2024-03-29T03:37:57;96525.16;;;8.97;57.05
69971;BME280;57301;50.328;8.542;2024-03-29T03:40:22;96533.78;;;9.06;57.66
69971;BME280;57301;50.328;8.542;2024-03-29T03:42:48;96558.94;;;8.82;58.70
69971;BME280;57301;50.328;8.542;2024-03-29T03:45:13;96542.63;;;8.64;59.03
69971;BME280;57301;50.328;8.542;2024-03-29T03:47:39;96536.47;;;8.63;59.96
69971;BME280;57301;50.328;8.542;2024-03-29T03:50:05;96540.34;;;8.82;59.28
69971;BME280;57301;50.328;8.542;2024-03-29T03:52:31;96531.25;;;8.48;61.55
69971;BME280;57301;50.328;8.542;2024-03-29T03:54:56;96532.63;;;8.44;61.44
69971;BME280;57301;50.328;8.542;2024-03-29T03:57:22;96533.59;;;8.07;61.56
69971;BME280;57301;50.328;8.542;2024-03-29T03:59:49;96536.81;;;8.53;60.32
69971;BME280;57301;50.328;8.542;2024-03-29T04:02:15;96538.00;;;8.51;60.46
69971;BME280;57301;50.328;8.542;2024-03-29T04:04:41;96539.75;;;8.65;59.71
69971;BME280;57301;50.328;8.542;2024-03-29T04:07:06;96522.44;;;8.69;59.12
69971;BME280;57301;50.328;8.542;2024-03-29T04:09:32;96532.31;;;8.75;59.18
69971;BME280;57301;50.328;8.542;2024-03-29T04:11:57;96536.34;;;8.50;59.72
69971;BME280;57301;50.328;8.542;2024-03-29T04:14:23;96538.59;;;8.31;59.98
69971;BME280;57301;50.328;8.542;2024-03-29T04:16:49;96541.16;;;8.40;60.97
69971;BME280;57301;50.328;8.542;2024-03-29T04:19:14;96545.84;;;8.80;60.04
69971;BME280;57301;50.328;8.542;2024-03-29T04:21:40;96538.94;;;8.86;59.52
69971;BME280;57301;50.328;8.542;2024-03-29T04:24:06;96536.94;;;8.67;60.61
69971;BME280;57301;50.328;8.542;2024-03-29T04:26:35;96530.88;;;9.01;59.52
69971;BME280;57301;50.328;8.542;2024-03-29T04:29:02;96531.69;;;8.73;60.85
69971;BME280;57301;50.328;8.542;2024-03-29T04:31:27;96537.25;;;8.36;62.60
69971;BME280;57301;50.328;8.542;2024-03-29T04:33:53;96525.41;;;8.38;62.71
69971;BME280;57301;50.328;8.542;2024-03-29T04:36:18;96521.34;;;8.06;63.46
69971;BME280;57301;50.328;8.542;2024-03-29T04:38:44;96509.53;;;8.45;63.13
69971;BME280;57301;50.328;8.542;2024-03-29T04:41:10;96498.97;;;8.15;64.02
69971;BME280;57301;50.328;8.542;2024-03-29T04:43:35;96490.06;;;8.38;63.07
69971;BME280;57301;50.328;8.542;2024-03-29T04:46:02;96490.75;;;8.10;64.62
69971;BME280;57301;50.328;8.542;2024-03-29T04:48:31;96489.72;;;7.90;65.78
69971;BME280;57301;50.328;8.542;2024-03-29T04:50:57;96494.00;;;7.91;66.62
69971;BME280;57301;50.328;8.542;2024-03-29T04:53:23;96506.16;;;8.00;66.88
69971;BME280;57301;50.328;8.542;2024-03-29T04:55:55;96509.66;;;8.00;66.57
69971;BME280;57301;50.328;8.542;2024-03-29T04:58:22;96497.25;;;7.86;66.95
69971;BME280;57301;50.328;8.542;2024-03-29T05:00:48;96503.16;;;7.88;67.48
69971;BME280;57301;50.328;8.542;2024-03-29T05:03:14;96513.22;;;7.93;67.41
69971;BME280;57301;50.328;8.542;2024-03-29T05:05:39;96497.50;;;7.76;68.25
69971;BME280;57301;50.328;8.542;2024-03-29T05:08:05;96506.56;;;7.82;67.71
69971;BME280;57301;50.328;8.542;2024-03-29T05:10:31;96502.22;;;7.96;67.54
69971;BME280;57301;50.328;8.542;2024-03-29T05:12:57;96496.28;;;8.30;66.55
69971;BME280;57301;50.328;8.542;2024-03-29T05:15:22;96505.84;;;8.09;67.34
69971;BME280;57301;50.328;8.542;2024-03-29T05:17:48;96510.19;;;7.96;68.19
69971;BME280;57301;50.328;8.542;2024-03-29T05:20:13;96512.63;;;7.61;70.02
69971;BME280;57301;50.328;8.542;2024-03-29T05:22:39;96516.47;;;7.73;70.41
69971;BME280;57301;50.328;8.542;2024-03-29T05:25:04;96527.25;;;7.72;71.41
69971;BME280;57301;50.328;8.542;2024-03-29T05:27:30;96525.19;;;8.03;70.71
69971;BME280;57301;50.328;8.542;2024-03-29T05:29:56;96529.38;;;8.13;69.96
69971;BME280;57301;50.328;8.542;2024-03-29T05:32:21;96543.56;;;8.20;71.02
69971;BME280;57301;50.328;8.542;2024-03-29T05:34:47;96539.84;;;8.50;69.48
69971;BME280;57301;50.328;8.542;2024-03-29T05:37:12;96536.13;;;8.66;70.01
69971;BME280;57301;50.328;8.542;2024-03-29T05:39:41;96541.16;;;8.40;71.63
69971;BME280;57301;50.328;8.542;2024-03-29T05:42:06;96535.16;;;8.01;72.99
69971;BME280;57301;50.328;8.542;2024-03-29T05:44:32;96540.78;;;8.43;73.12
69971;BME280;57301;50.328;8.542;2024-03-29T05:46:57;96540.34;;;8.60;71.24
69971;BME280;57301;50.328;8.542;2024-03-29T05:49:23;96535.13;;;8.95;71.46
69971;BME280;57301;50.328;8.542;2024-03-29T05:51:48;96543.94;;;8.74;73.42
69971;BME280;57301;50.328;8.542;2024-03-29T05:54:15;96535.72;;;8.48;74.67
69971;BME280;57301;50.328;8.542;2024-03-29T05:56:41;96543.69;;;8.69;73.89
69971;BME280;57301;50.328;8.542;2024-03-29T05:59:07;96548.44;;;8.74;73.82
69971;BME280;57301;50.328;8.542;2024-03-29T06:01:32;96542.94;;;8.75;74.38
69971;BME280;57301;50.328;8.542;2024-03-29T06:03:58;96553.63;;;8.60;74.98
69971;BME280;57301;50.328;8.542;2024-03-29T06:06:30;96561.09;;;8.50;75.41
69971;BME280;57301;50.328;8.542;2024-03-29T06:08:55;96556.72;;;8.85;75.26
69971;BME280;57301;50.328;8.542;2024-03-29T06:11:21;96562.47;;;9.10;73.67
69971;BME280;57301;50.328;8.542;2024-03-29T06:13:46;96552.69;;;8.68;74.49
69971;BME280;57301;50.328;8.542;2024-03-29T06:16:18;96558.38;;;8.86;74.61
69971;BME280;57301;50.328;8.542;2024-03-29T06:19:02;96566.66;;;8.98;73.97
69971;BME280;57301;50.328;8.542;2024-03-29T06:21:27;96564.78;;;9.20;74.17
69971;BME280;57301;50.328;8.542;2024-03-29T06:23:53;96564.97;;;9.40;73.31
69971;BME280;57301;50.328;8.542;2024-03-29T06:26:19;96566.56;;;9.34;73.42
69971;BME280;57301;50.328;8.542;2024-03-29T06:28:46;96571.59;;;9.01;75.32
69971;BME280;57301;50.328;8.542;2024-03-29T06:31:11;96562.38;;;9.25;74.50
69971;BME280;57301;50.328;8.542;2024-03-29T06:33:37;96551.94;;;9.52;73.85
69971;BME280;57301;50.328;8.542;2024-03-29T06:36:03;96559.19;;;9.64;72.52
69971;BME280;57301;50.328;8.542;2024-03-29T06:38:28;96548.34;;;9.66;73.06
69971;BME280;57301;50.328;8.542;2024-03-29T06:40:54;96566.06;;;9.52;74.31
69971;BME280;57301;50.328;8.542;2024-03-29T06:43:19;96560.72;;;8.96;76.40
69971;BME280;57301;50.328;8.542;2024-03-29T06:45:45;96565.22;;;8.74;76.42
69971;BME280;57301;50.328;8.542;2024-03-29T06:48:10;96561.03;;;8.86;77.64
69971;BME280;57301;50.328;8.542;2024-03-29T06:50:37;96571.41;;;8.60;78.59
69971;BME280;57301;50.328;8.542;2024-03-29T06:53:03;96567.66;;;8.76;78.16
69971;BME280;57301;50.328;8.542;2024-03-29T06:55:30;96569.31;;;8.98;77.78
69971;BME280;57301;50.328;8.542;2024-03-29T06:57:56;96553.44;;;8.83;77.92
69971;BME280;57301;50.328;8.542;2024-03-29T07:00:21;96560.59;;;9.04;78.37
69971;BME280;57301;50.328;8.542;2024-03-29T07:02:47;96557.91;;;8.83;77.74
69971;BME280;57301;50.328;8.542;2024-03-29T07:05:13;96566.19;;;9.16;77.21
69971;BME280;57301;50.328;8.542;2024-03-29T07:07:38;96567.63;;;8.91;79.24
69971;BME280;57301;50.328;8.542;2024-03-29T07:10:06;96572.28;;;9.38;77.23
69971;BME280;57301;50.328;8.542;2024-03-29T07:12:32;96567.03;;;9.17;78.03
69971;BME280;57301;50.328;8.542;2024-03-29T07:14:57;96563.56;;;9.51;78.59
69971;BME280;57301;50.328;8.542;2024-03-29T07:17:23;96567.53;;;9.61;77.63
69971;BME280;57301;50.328;8.542;2024-03-29T07:19:48;96566.44;;;9.77;77.69
69971;BME280;57301;50.328;8.542;2024-03-29T07:22:14;96565.59;;;9.77;77.02
69971;BME280;57301;50.328;8.542;2024-03-29T07:24:40;96573.72;;;9.68;79.09
69971;BME280;57301;50.328;8.542;2024-03-29T07:27:05;96570.34;;;9.88;80.02
69971;BME280;57301;50.328;8.542;2024-03-29T07:29:31;96570.72;;;9.78;81.02
69971;BME280;57301;50.328;8.542;2024-03-29T07:32:00;96563.28;;;10.02;80.08
69971;BME280;57301;50.328;8.542;2024-03-29T07:34:26;96572.53;;;10.12;80.85
69971;BME280;57301;50.328;8.542;2024-03-29T07:36:51;96580.06;;;10.43;80.73
69971;BME280;57301;50.328;8.542;2024-03-29T07:39:17;96586.44;;;10.56;79.78
69971;BME280;57301;50.328;8.542;2024-03-29T07:41:43;96581.41;;;10.81;78.26
69971;BME280;57301;50.328;8.542;2024-03-29T07:44:08;96582.31;;;10.40;80.53
69971;BME280;57301;50.328;8.542;2024-03-29T07:46:35;96578.31;;;10.22;80.99
69971;BME280;57301;50.328;8.542;2024-03-29T07:49:02;96579.50;;;10.68;79.88
69971;BME280;57301;50.328;8.542;2024-03-29T07:51:28;96577.03;;;10.53;79.98
69971;BME280;57301;50.328;8.542;2024-03-29T07:53:54;96581.34;;;10.61;79.62
69971;BME280;57301;50.328;8.542;2024-03-29T07:56:20;96580.19;;;10.96;79.02
69971;BME280;57301;50.328;8.542;2024-03-29T07:58:50;96585.69;;;10.75;78.81
69971;BME280;57301;50.328;8.542;2024-03-29T08:01:23;96582.84;;;10.90;79.15
69971;BME280;57301;50.328;8.542;2024-03-29T08:03:51;96569.94;;;11.07;77.51
69971;BME280;57301;50.328;8.542;2024-03-29T08:06:19;96570.34;;;11.10;76.13
69971;BME280;57301;50.328;8.542;2024-03-29T08:08:45;96564.41;;;11.35;75.42
69971;BME280;57301;50.328;8.542;2024-03-29T08:11:11;96566.03;;;11.16;74.62
69971;BME280;57301;50.328;8.542;2024-03-29T08:13:38;96567.88;;;11.35;74.50
69971;BME280;57301;50.328;8.542;2024-03-29T08:16:05;96558.22;;;11.47;74.32
69971;BME280;57301;50.328;8.542;2024-03-29T08:18:31;96552.69;;;11.09;76.93
69971;BME280;57301;50.328;8.542;2024-03-29T08:20:57;96560.47;;;10.77;75.93
69971;BME280;57301;50.328;8.542;2024-03-29T08:23:24;96558.66;;;10.23;77.47
69971;BME280;57301;50.328;8.542;2024-03-29T08:25:49;96578.25;;;10.09;79.51
69971;BME280;57301;50.328;8.542;2024-03-29T08:28:19;96576.16;;;10.39;78.12
69971;BME280;57301;50.328;8.542;2024-03-29T08:31:25;96575.66;;;10.22;78.62
69971;BME280;57301;50.328;8.542;2024-03-29T08:34:06;96580.22;;;10.29;78.35
69971;BME280;57301;50.328;8.542;2024-03-29T08:36:33;96583.94;;;10.41;78.39
69971;BME280;57301;50.328;8.542;2024-03-29T08:38:59;96589.66;;;10.31;78.97
69971;BME280;57301;50.328;8.542;2024-03-29T08:41:24;96590.75;;;10.09;78.97
69971;BME280;57301;50.328;8.542;2024-03-29T08:43:50;96593.53;;;9.59;80.71
69971;BME280;57301;50.328;8.542;2024-03-29T08:46:15;96593.13;;;9.90;80.67
69971;BME280;57301;50.328;8.542;2024-03-29T08:48:41;96602.19;;;10.03;79.59
69971;BME280;57301;50.328;8.542;2024-03-29T08:51:08;96602.75;;;9.63;80.34
69971;BME280;57301;50.328;8.542;2024-03-29T08:53:34;96605.88;;;9.67;80.40
69971;BME280;57301;50.328;8.542;2024-03-29T08:56:00;96597.91;;;9.74;79.93
69971;BME280;57301;50.328;8.542;2024-03-29T08:58:26;96615.44;;;9.61;80.88
69971;BME280;57301;50.328;8.542;2024-03-29T09:00:54;96611.47;;;9.79;81.50
69971;BME280;57301;50.328;8.542;2024-03-29T09:03:22;96617.28;;;9.61;81.32
69971;BME280;57301;50.328;8.542;2024-03-29T09:05:47;96617.31;;;9.95;79.38
69971;BME280;57301;50.328;8.542;2024-03-29T09:08:13;96616.06;;;9.91;79.96
69971;BME280;57301;50.328;8.542;2024-03-29T09:10:38;96626.16;;;10.03;79.66
69971;BME280;57301;50.328;8.542;2024-03-29T09:13:04;96634.84;;;9.83;80.03
69971;BME280;57301;50.328;8.542;2024-03-29T09:15:32;96640.13;;;9.77;80.40
69971;BME280;57301;50.328;8.542;2024-03-29T09:17:58;96647.06;;;10.06;79.45
69971;BME280;57301;50.328;8.542;2024-03-29T09:20:28;96653.47;;;10.18;78.83
69971;BME280;57301;50.328;8.542;2024-03-29T09:22:53;96657.47;;;10.29;78.13
69971;BME280;57301;50.328;8.542;2024-03-29T09:25:19;96659.72;;;10.25;78.96
69971;BME280;57301;50.328;8.542;2024-03-29T09:27:45;96660.72;;;10.24;79.29
69971;BME280;57301;50.328;8.542;2024-03-29T09:30:12;96670.44;;;10.38;78.85
69971;BME280;57301;50.328;8.542;2024-03-29T09:32:38;96660.94;;;10.29;80.19
69971;BME280;57301;50.328;8.542;2024-03-29T09:35:04;96666.84;;;10.25;79.16
69971;BME280;57301;50.328;8.542;2024-03-29T09:37:29;96667.53;;;10.33;78.47
69971;BME280;57301;50.328;8.542;2024-03-29T09:39:55;96667.28;;;10.00;79.27
69971;BME280;57301;50.328;8.542;2024-03-29T09:42:22;96658.44;;;10.21;79.26
69971;BME280;57301;50.328;8.542;2024-03-29T09:44:50;96652.50;;;10.67;78.21
69971;BME280;57301;50.328;8.542;2024-03-29T09:47:17;96663.53;;;10.51;79.01
69971;BME280;57301;50.328;8.542;2024-03-29T09:49:47;96670.81;;;10.83;76.88
69971;BME280;57301;50.328;8.542;2024-03-29T09:52:16;96670.84;;;10.90;77.45
69971;BME280;57301;50.328;8.542;2024-03-29T09:54:42;96675.53;;;10.74;75.30
69971;BME280;57301;50.328;8.542;2024-03-29T09:57:08;96667.84;;;10.52;78.09
69971;BME280;57301;50.328;8.542;2024-03-29T09:59:35;96671.84;;;10.34;78.48
69971;BME280;57301;50.328;8.542;2024-03-29T10:02:04;96682.84;;;10.25;79.34
69971;BME280;57301;50.328;8.542;2024-03-29T10:04:34;96684.47;;;10.60;77.54
69971;BME280;57301;50.328;8.542;2024-03-29T10:07:01;96668.56;;;10.32;78.72
69971;BME280;57301;50.328;8.542;2024-03-29T10:09:26;96674.22;;;10.22;79.42
69971;BME280;57301;50.328;8.542;2024-03-29T10:11:54;96678.81;;;10.76;78.27
69971;BME280;57301;50.328;8.542;2024-03-29T10:14:20;96670.03;;;10.89;76.45
69971;BME280;57301;50.328;8.542;2024-03-29T10:16:50;96680.00;;;10.26;78.35
69971;BME280;57301;50.328;8.542;2024-03-29T10:19:16;96678.81;;;10.35;78.05
69971;BME280;57301;50.328;8.542;2024-03-29T10:21:42;96681.94;;;10.45;78.37
69971;BME280;57301;50.328;8.542;2024-03-29T10:24:14;96686.41;;;10.32;79.58
69971;BME280;57301;50.328;8.542;2024-03-29T10:26:42;96697.94;;;10.17;80.06
69971;BME280;57301;50.328;8.542;2024-03-29T10:29:08;96699.06;;;10.02;80.47
69971;BME280;57301;50.328;8.542;2024-03-29T10:31:34;96706.00;;;10.24;80.79
69971;BME280;57301;50.328;8.542;2024-03-29T10:34:04;96693.25;;;10.54;80.19
69971;BME280;57301;50.328;8.542;2024-03-29T10:36:34;96701.63;;;10.16;81.43
69971;BME280;57301;50.328;8.542;2024-03-29T10:39:09;96697.97;;;11.07;77.21
69971;BME280;57301;50.328;8.542;2024-03-29T10:41:43;96694.81;;;10.83;78.61
69971;BME280;57301;50.328;8.542;2024-03-29T10:44:10;96688.91;;;10.94;78.56
69971;BME280;57301;50.328;8.542;2024-03-29T10:46:40;96688.22;;;10.72;79.09
69971;BME280;57301;50.328;8.542;2024-03-29T10:49:08;96684.47;;;11.21;76.69
69971;BME280;57301;50.328;8.542;2024-03-29T10:51:41;96678.19;;;11.82;75.74
69971;BME280;57301;50.328;8.542;2024-03-29T10:54:10;96690.25;;;11.38;76.37
69971;BME280;57301;50.328;8.542;2024-03-29T10:56:37;96685.34;;;11.55;75.81
69971;BME280;57301;50.328;8.542;2024-03-29T10:59:09;96675.69;;;11.61;75.43
69971;BME280;57301;50.328;8.542;2024-03-29T11:01:39;96684.91;;;11.51;76.67
69971;BME280;57301;50.328;8.542;2024-03-29T11:04:13;96692.09;;;11.44;76.33
69971;BME280;57301;50.328;8.542;2024-03-29T11:06:43;96682.47;;;12.09;73.15
69971;BME280;57301;50.328;8.542;2024-03-29T11:09:13;96691.50;;;11.36;75.16
69971;BME280;57301;50.328;8.542;2024-03-29T11:11:42;96678.56;;;11.72;74.00
69971;BME280;57301;50.328;8.542;2024-03-29T11:14:14;96664.38;;;11.58;75.24
69971;BME280;57301;50.328;8.542;2024-03-29T11:16:41;96660.44;;;11.21;76.71
69971;BME280;57301;50.328;8.542;2024-03-29T11:19:12;96649.78;;;11.35;76.09
69971;BME280;57301;50.328;8.542;2024-03-29T11:21:39;96651.69;;;11.87;74.62
69971;BME280;57301;50.328;8.542;2024-03-29T11:24:08;96653.69;;;11.72;75.86
69971;BME280;57301;50.328;8.542;2024-03-29T11:26:34;96669.22;;;11.02;77.05
69971;BME280;57301;50.328;8.542;2024-03-29T11:29:00;96676.44;;;11.08;77.11
69971;BME280;57301;50.328;8.542;2024-03-29T11:31:27;96679.13;;;11.28;76.99
69971;BME280;57301;50.328;8.542;2024-03-29T11:33:53;96687.94;;;10.61;79.96
69971;BME280;57301;50.328;8.542;2024-03-29T11:36:23;96690.66;;;10.67;79.88
69971;BME280;57301;50.328;8.542;2024-03-29T11:38:53;96691.53;;;10.81;77.89
69971;BME280;57301;50.328;8.542;2024-03-29T11:41:26;96702.22;;;10.81;78.97
69971;BME280;57301;50.328;8.542;2024-03-29T11:43:56;96691.41;;;10.55;80.27
69971;BME280;57301;50.328;8.542;2024-03-29T11:46:23;96708.59;;;10.45;81.57
69971;BME280;57301;50.328;8.542;2024-03-29T11:48:49;96729.56;;;10.62;80.39
69971;BME280;57301;50.328;8.542;2024-03-29T11:51:18;96744.00;;;11.35;78.57
69971;BME280;57301;50.328;8.542;2024-03-29T11:53:46;96750.31;;;11.08;78.73
69971;BME280;57301;50.328;8.542;2024-03-29T11:56:12;96751.03;;;10.88;80.40
69971;BME280;57301;50.328;8.542;2024-03-29T11:58:39;96740.97;;;10.84;81.51
69971;BME280;57301;50.328;8.542;2024-03-29T12:01:05;96725.78;;;11.52;78.71
69971;BME280;57301;50.328;8.542;2024-03-29T12:03:32;96724.09;;;10.70;82.27
69971;BME280;57301;50.328;8.542;2024-03-29T12:05:59;96721.50;;;10.90;82.36
69971;BME280;57301;50.328;8.542;2024-03-29T12:08:31;96719.84;;;10.82;83.26
69971;BME280;57301;50.328;8.542;2024-03-29T12:10:58;96717.44;;;11.00;84.21
69971;BME280;57301;50.328;8.542;2024-03-29T12:13:23;96702.91;;;10.62;85.40
69971;BME280;57301;50.328;8.542;2024-03-29T12:15:49;96701.75;;;10.71;85.02
69971;BME280;57301;50.328;8.542;2024-03-29T12:18:15;96705.31;;;10.43;86.46
69971;BME280;57301;50.328;8.542;2024-03-29T12:20:42;96704.44;;;10.36;87.58
69971;BME280;57301;50.328;8.542;2024-03-29T12:23:11;96717.56;;;10.10;88.58
69971;BME280;57301;50.328;8.542;2024-03-29T12:25:39;96709.78;;;10.08;88.07
69971;BME280;57301;50.328;8.542;2024-03-29T12:28:05;96705.56;;;10.20;88.16
69971;BME280;57301;50.328;8.542;2024-03-29T12:30:32;96710.34;;;10.25;88.63
69971;BME280;57301;50.328;8.542;2024-03-29T12:33:01;96688.31;;;10.16;89.44
69971;BME280;57301;50.328;8.542;2024-03-29T12:35:28;96680.72;;;10.13;89.72
69971;BME280;57301;50.328;8.542;2024-03-29T12:37:58;96681.72;;;10.12;89.35
69971;BME280;57301;50.328;8.542;2024-03-29T12:40:24;96693.19;;;10.82;86.55
69971;BME280;57301;50.328;8.542;2024-03-29T12:42:52;96723.84;;;11.06;85.72
69971;BME280;57301;50.328;8.542;2024-03-29T12:45:18;96729.00;;;10.73;85.96
69971;BME280;57301;50.328;8.542;2024-03-29T12:47:45;96742.81;;;11.38;83.84
69971;BME280;57301;50.328;8.542;2024-03-29T12:50:23;96752.41;;;11.19;84.14
69971;BME280;57301;50.328;8.542;2024-03-29T12:52:50;96749.47;;;11.00;85.73
69971;BME280;57301;50.328;8.542;2024-03-29T12:55:18;96746.22;;;11.12;85.34
69971;BME280;57301;50.328;8.542;2024-03-29T12:57:44;96753.50;;;10.90;86.76
69971;BME280;57301;50.328;8.542;2024-03-29T13:00:11;96766.19;;;10.81;86.98
69971;BME280;57301;50.328;8.542;2024-03-29T13:02:37;96761.16;;;10.58;88.27
69971;BME280;57301;50.328;8.542;2024-03-29T13:05:05;96765.59;;;10.44;89.50